createdAt,value
2018-06-18T00:01:10.854Z,71.34
2018-06-18T00:03:38.324Z,71.80
2018-06-18T00:06:06.294Z,72.46
2018-06-18T00:08:34.261Z,71.26
2018-06-18T00:11:03.897Z,70.86
2018-06-18T00:13:31.378Z,71.44
2018-06-18T00:15:58.326Z,71.12
2018-06-18T00:18:25.865Z,70.65
2018-06-18T00:20:56.242Z,70.15
2018-06-18T00:23:23.187Z,70.42
2018-06-18T00:25:53.133Z,70.44
2018-06-18T00:28:20.079Z,70.72
2018-06-18T00:30:47.002Z,71.46
2018-06-18T00:33:13.871Z,69.51
2018-06-18T00:35:41.855Z,70.13
2018-06-18T00:38:11.804Z,71.59
2018-06-18T00:40:39.778Z,71.38
2018-06-18T00:43:07.612Z,70.81
2018-06-18T00:45:34.482Z,71.70
2018-06-18T00:48:02.391Z,71.21
2018-06-18T00:50:29.874Z,71.36
2018-06-18T00:52:58.354Z,74.17
2018-06-18T00:55:37.706Z,73.65
2018-06-18T00:58:05.650Z,71.92
2018-06-18T01:00:34.446Z,71.34
2018-06-18T01:03:03.390Z,70.86
2018-06-18T01:05:31.888Z,71.80
2018-06-18T01:07:59.359Z,71.67
2018-06-18T01:10:26.894Z,71.24
2018-06-18T01:12:54.387Z,71.03
2018-06-18T01:15:21.311Z,72.33
2018-06-18T01:17:48.186Z,71.24
2018-06-18T01:20:15.878Z,71.59
2018-06-18T01:22:47.018Z,70.96
2018-06-18T01:25:14.921Z,71.54
2018-06-18T01:27:41.838Z,71.44
2018-06-18T01:30:09.491Z,71.53
2018-06-18T01:32:37.438Z,71.78
2018-06-18T01:35:05.339Z,73.31
2018-06-18T01:37:36.038Z,73.94
2018-06-18T01:40:05.062Z,73.90
2018-06-18T01:42:33.979Z,72.54
2018-06-18T01:45:01.953Z,72.73
2018-06-18T01:47:28.915Z,72.77
2018-06-18T01:49:55.826Z,72.92
2018-06-18T01:52:25.689Z,72.58
2018-06-18T01:54:52.762Z,72.72
2018-06-18T01:57:19.654Z,72.59
2018-06-18T01:59:47.385Z,72.45
2018-06-18T02:02:21.085Z,72.97
2018-06-18T02:04:48.039Z,72.36
2018-06-18T02:07:15.010Z,71.74
2018-06-18T02:09:41.967Z,71.36
2018-06-18T02:12:08.889Z,71.60
2018-06-18T02:14:38.855Z,70.74
2018-06-18T02:17:06.381Z,71.02
2018-06-18T02:19:33.892Z,71.30
2018-06-18T02:22:01.733Z,70.78
2018-06-18T02:24:29.419Z,71.77
2018-06-18T02:27:03.045Z,72.35
2018-06-18T02:29:38.658Z,72.18
2018-06-18T02:32:12.222Z,73.29
2018-06-18T02:34:44.987Z,73.31
2018-06-18T02:37:20.635Z,74.21
2018-06-18T02:39:54.279Z,76.20
2018-06-18T02:42:21.151Z,77.35
2018-06-18T02:44:48.922Z,76.56
2018-06-18T02:47:15.778Z,75.47
2018-06-18T02:49:42.703Z,74.82
2018-06-18T02:52:09.602Z,74.53
2018-06-18T02:54:40.454Z,75.16
2018-06-18T02:57:08.795Z,73.47
2018-06-18T02:59:35.699Z,74.17
2018-06-18T03:02:02.665Z,74.27
2018-06-18T03:04:32.480Z,73.94
2018-06-18T03:06:59.942Z,74.82
2018-06-18T03:09:26.791Z,74.18
2018-06-18T03:11:53.792Z,74.39
2018-06-18T03:14:22.459Z,74.73
2018-06-18T03:16:49.949Z,75.86
2018-06-18T03:19:22.494Z,75.89
2018-06-18T03:21:56.582Z,75.51
2018-06-18T03:24:33.175Z,75.29
2018-06-18T03:27:05.690Z,75.17
2018-06-18T03:29:34.806Z,75.18
2018-06-18T03:32:09.015Z,75.32
2018-06-18T03:34:35.890Z,76.16
2018-06-18T03:37:05.896Z,77.01
2018-06-18T03:39:34.438Z,76.56
2018-06-18T03:42:01.905Z,77.02
2018-06-18T03:44:39.032Z,75.92
2018-06-18T03:47:20.530Z,75.56
2018-06-18T03:49:47.968Z,75.02
2018-06-18T03:52:14.930Z,72.64
2018-06-18T03:54:41.850Z,70.09
2018-06-18T03:57:08.822Z,67.01
2018-06-18T03:59:36.502Z,67.52
2018-06-18T04:02:15.589Z,69.13
2018-06-18T04:04:58.619Z,70.68
2018-06-18T04:07:31.783Z,70.62
2018-06-18T04:10:04.565Z,71.54
2018-06-18T04:12:31.590Z,71.52
2018-06-18T04:14:58.515Z,70.82
2018-06-18T04:17:25.466Z,69.57
2018-06-18T04:19:53.498Z,69.28
2018-06-18T04:22:21.069Z,68.63
2018-06-18T04:24:48.009Z,68.66
2018-06-18T04:27:14.997Z,69.53
2018-06-18T04:29:45.054Z,68.59
2018-06-18T04:32:11.994Z,68.55
2018-06-18T04:34:48.946Z,70.49
2018-06-18T04:37:20.442Z,71.44
2018-06-18T04:39:47.462Z,71.25
2018-06-18T04:42:20.683Z,70.30
2018-06-18T04:44:55.327Z,70.39
2018-06-18T04:47:28.023Z,69.76
2018-06-18T04:50:00.643Z,69.07
2018-06-18T04:52:29.749Z,67.70
2018-06-18T04:54:59.758Z,68.06
2018-06-18T04:57:26.768Z,67.27
2018-06-18T04:59:59.061Z,66.56
2018-06-18T05:02:25.998Z,67.13
2018-06-18T05:04:53.989Z,65.94
2018-06-18T05:07:22.256Z,65.48
2018-06-18T05:10:04.691Z,66.05
2018-06-18T05:12:31.631Z,64.67
2018-06-18T05:14:58.994Z,64.05
2018-06-18T05:17:28.750Z,63.27
2018-06-18T05:19:56.701Z,62.88
2018-06-18T05:22:24.586Z,61.63
2018-06-18T05:24:54.627Z,61.34
2018-06-18T05:27:32.231Z,60.44
2018-06-18T05:30:02.443Z,61.01
2018-06-18T05:32:30.022Z,60.05
2018-06-18T05:34:57.954Z,59.75
2018-06-18T05:37:33.927Z,61.16
2018-06-18T05:40:03.620Z,60.42
2018-06-18T05:42:32.479Z,60.54
2018-06-18T05:45:00.090Z,60.72
2018-06-18T05:47:27.046Z,60.87
2018-06-18T05:49:53.982Z,61.41
2018-06-18T05:52:21.563Z,59.28
2018-06-18T05:54:52.506Z,58.00
2018-06-18T05:57:20.445Z,58.50
2018-06-18T05:59:49.082Z,57.73
2018-06-18T06:02:19.026Z,58.43
2018-06-18T06:04:45.941Z,56.59
2018-06-18T06:07:13.580Z,57.22
2018-06-18T06:09:40.509Z,58.76
2018-06-18T06:12:10.631Z,58.28
2018-06-18T06:14:38.526Z,57.46
2018-06-18T06:17:06.091Z,56.99
2018-06-18T06:19:33.550Z,56.71
2018-06-18T06:22:01.554Z,57.14
2018-06-18T06:24:31.486Z,57.67
2018-06-18T06:27:04.504Z,57.61
2018-06-18T06:29:34.877Z,58.88
2018-06-18T06:32:02.587Z,59.55
2018-06-18T06:34:29.886Z,59.36
2018-06-18T06:37:02.959Z,58.53
2018-06-18T06:39:30.622Z,55.58
2018-06-18T06:42:10.798Z,55.61
2018-06-18T06:44:38.611Z,53.61
2018-06-18T06:47:07.018Z,51.84
2018-06-18T06:49:36.566Z,50.97
2018-06-18T06:52:04.566Z,51.65
2018-06-18T06:54:31.542Z,51.67
2018-06-18T06:56:59.047Z,50.80
2018-06-18T06:59:25.981Z,49.45
2018-06-18T07:01:57.603Z,47.95
2018-06-18T07:04:25.098Z,49.22
2018-06-18T07:06:51.998Z,47.32
2018-06-18T07:09:20.634Z,49.15
2018-06-18T07:11:47.586Z,51.00
2018-06-18T07:14:15.081Z,48.20
2018-06-18T07:16:43.595Z,48.23
2018-06-18T07:19:12.160Z,48.85
2018-06-18T07:21:39.614Z,50.21
2018-06-18T07:24:10.082Z,49.29
2018-06-18T07:26:37.022Z,49.39
2018-06-18T07:29:04.049Z,48.63
2018-06-18T07:31:34.634Z,47.69
2018-06-18T07:34:01.570Z,47.31
2018-06-18T07:36:28.539Z,47.16
2018-06-18T07:38:55.458Z,48.69
2018-06-18T07:41:27.071Z,47.64
2018-06-18T07:43:54.625Z,47.10
2018-06-18T07:46:22.105Z,46.13
2018-06-18T07:48:49.051Z,44.70
2018-06-18T07:51:16.021Z,46.87
2018-06-18T07:53:43.586Z,44.28
2018-06-18T07:56:11.178Z,42.75
2018-06-18T07:58:38.703Z,40.10
2018-06-18T08:01:08.678Z,43.92
2018-06-18T08:03:36.181Z,45.14
2018-06-18T08:06:06.353Z,45.08
2018-06-18T08:08:34.138Z,42.97
2018-06-18T08:11:01.090Z,42.67
2018-06-18T08:13:28.637Z,42.61
2018-06-18T08:15:56.142Z,40.82
2018-06-18T08:18:23.098Z,41.80
2018-06-18T08:20:50.111Z,41.76
2018-06-18T08:23:17.610Z,41.76
2018-06-18T08:25:45.495Z,41.67
2018-06-18T08:28:12.446Z,38.33
2018-06-18T08:30:39.420Z,39.60
2018-06-18T08:33:07.431Z,40.39
2018-06-18T08:35:36.169Z,40.78
2018-06-18T08:38:03.838Z,40.35
2018-06-18T08:40:30.738Z,40.96
2018-06-18T08:42:58.609Z,41.62
2018-06-18T08:45:25.598Z,40.13
2018-06-18T08:47:52.517Z,41.58
2018-06-18T08:50:25.997Z,42.02
2018-06-18T08:52:59.802Z,40.95
2018-06-18T08:55:32.377Z,40.00
2018-06-18T08:58:05.014Z,40.03
2018-06-18T09:00:37.764Z,39.11
2018-06-18T09:03:10.683Z,40.69
2018-06-18T09:05:42.184Z,39.28
2018-06-18T09:08:11.794Z,40.92
2018-06-18T09:10:39.863Z,41.07
2018-06-18T09:13:07.666Z,39.50
2018-06-18T09:15:34.630Z,41.20
2018-06-18T09:18:01.597Z,42.04
2018-06-18T09:20:31.611Z,40.03
2018-06-18T09:22:59.200Z,38.44
2018-06-18T09:25:26.169Z,39.14
2018-06-18T09:27:53.114Z,41.03
2018-06-18T09:30:20.665Z,43.45
2018-06-18T09:32:47.607Z,41.44
2018-06-18T09:35:14.598Z,41.14
2018-06-18T09:37:41.579Z,40.12
2018-06-18T09:40:08.539Z,39.66
2018-06-18T09:42:35.426Z,36.97
2018-06-18T09:45:03.075Z,37.22
2018-06-18T09:47:30.906Z,37.88
2018-06-18T09:50:03.610Z,36.85
2018-06-18T09:52:36.254Z,39.29
2018-06-18T09:55:08.903Z,40.97
2018-06-18T09:57:42.710Z,39.32
2018-06-18T10:00:26.550Z,40.51
2018-06-18T10:02:59.666Z,38.54
2018-06-18T10:05:32.766Z,41.26
2018-06-18T10:07:59.718Z,43.66
2018-06-18T10:10:28.230Z,42.36
2018-06-18T10:12:58.186Z,43.23
2018-06-18T10:15:28.178Z,40.99
2018-06-18T10:17:56.671Z,39.98
2018-06-18T10:20:26.618Z,39.83
2018-06-18T10:22:53.542Z,41.00
2018-06-18T10:25:20.575Z,40.17
2018-06-18T10:27:47.467Z,41.15
2018-06-18T10:30:14.431Z,39.69
2018-06-18T10:32:51.399Z,38.78
2018-06-18T10:35:26.499Z,37.62
2018-06-18T10:37:59.167Z,40.31
2018-06-18T10:40:31.779Z,41.01
2018-06-18T10:43:04.438Z,43.03
2018-06-18T10:45:33.246Z,43.04
2018-06-18T10:48:00.193Z,43.25
2018-06-18T10:50:28.795Z,43.00
2018-06-18T10:52:55.747Z,40.95
2018-06-18T10:55:22.723Z,39.76
2018-06-18T10:57:49.698Z,41.36
2018-06-18T11:00:20.506Z,41.29
2018-06-18T11:02:47.530Z,40.51
2018-06-18T11:05:15.524Z,37.92
2018-06-18T11:07:44.358Z,38.78
2018-06-18T11:10:11.357Z,35.61
2018-06-18T11:12:38.246Z,34.02
2018-06-18T11:15:09.098Z,33.59
2018-06-18T11:17:41.826Z,34.46
2018-06-18T11:20:14.486Z,35.81
2018-06-18T11:22:47.409Z,35.68
2018-06-18T11:25:20.212Z,37.30
2018-06-18T11:27:47.155Z,38.10
2018-06-18T11:30:14.150Z,38.15
2018-06-18T11:32:41.059Z,37.42
2018-06-18T11:35:08.030Z,37.31
2018-06-18T11:37:41.389Z,34.90
2018-06-18T11:40:09.199Z,33.44
2018-06-18T11:42:36.143Z,34.23
2018-06-18T11:45:03.138Z,30.47
2018-06-18T11:47:30.791Z,30.95
2018-06-18T11:49:57.837Z,33.60
2018-06-18T11:52:25.726Z,34.68
2018-06-18T11:54:52.910Z,36.29
2018-06-18T11:57:19.903Z,36.79
2018-06-18T11:59:52.674Z,37.49
2018-06-18T12:02:25.336Z,36.09
2018-06-18T12:04:59.130Z,36.47
2018-06-18T12:07:31.841Z,37.34
2018-06-18T12:09:59.850Z,36.80
2018-06-18T12:12:26.803Z,36.58
2018-06-18T12:14:53.758Z,37.22
2018-06-18T12:17:20.699Z,36.42
2018-06-18T12:19:48.292Z,36.27
2018-06-18T12:22:16.038Z,37.48
2018-06-18T12:24:42.199Z,37.33
2018-06-18T12:27:21.658Z,38.71
2018-06-18T12:29:48.618Z,39.64
2018-06-18T12:32:15.563Z,36.51
2018-06-18T12:34:44.556Z,37.30
2018-06-18T12:37:13.278Z,37.69
2018-06-18T12:39:43.178Z,38.08
2018-06-18T12:42:10.773Z,37.34
2018-06-18T12:44:47.095Z,37.68
2018-06-18T12:47:19.835Z,37.63
2018-06-18T12:49:52.530Z,39.29
2018-06-18T12:52:25.087Z,39.74
2018-06-18T12:55:02.669Z,39.41
2018-06-18T12:57:30.386Z,38.53
2018-06-18T12:59:57.392Z,38.39
2018-06-18T13:02:28.258Z,37.88
2018-06-18T13:04:58.271Z,38.10
2018-06-18T13:07:25.911Z,39.54
2018-06-18T13:09:54.618Z,40.61
2018-06-18T13:12:21.562Z,42.08
2018-06-18T13:14:50.301Z,40.03
2018-06-18T13:17:17.869Z,41.66
2018-06-18T13:22:07.208Z,38.19
2018-06-18T13:24:35.076Z,38.54
2018-06-18T13:27:08.038Z,38.12
2018-06-18T13:29:35.807Z,37.95
2018-06-18T13:32:03.722Z,39.69
2018-06-18T13:34:31.339Z,41.52
2018-06-18T13:37:04.033Z,40.81
2018-06-18T13:39:37.615Z,41.79
2018-06-18T13:42:13.430Z,40.24
2018-06-18T13:44:46.174Z,39.88
2018-06-18T13:47:18.834Z,39.92
2018-06-18T13:49:54.206Z,40.17
2018-06-18T13:52:27.439Z,39.44
2018-06-18T13:54:55.854Z,43.38
2018-06-18T13:57:24.338Z,42.36
2018-06-18T13:59:54.490Z,44.65
2018-06-18T14:02:23.513Z,41.66
2018-06-18T14:04:54.226Z,44.19
2018-06-18T14:07:21.162Z,43.09
2018-06-18T14:09:48.835Z,42.71
2018-06-18T14:12:15.767Z,41.32
2018-06-18T14:14:44.734Z,43.00
2018-06-18T14:17:13.759Z,43.14
2018-06-18T14:19:48.360Z,42.34
2018-06-18T14:22:15.862Z,41.80
2018-06-18T14:24:43.046Z,42.69
2018-06-18T14:27:10.002Z,42.61
2018-06-18T14:29:47.434Z,42.28
2018-06-18T14:32:36.902Z,42.72
2018-06-18T14:35:09.718Z,41.45
2018-06-18T14:37:44.224Z,43.46
2018-06-18T14:40:13.129Z,43.17
2018-06-18T14:42:40.093Z,43.20
2018-06-18T14:45:07.813Z,42.75
2018-06-18T14:47:34.859Z,39.92
2018-06-18T14:50:01.881Z,39.52
2018-06-18T14:52:29.102Z,41.39
2018-06-18T14:54:56.066Z,38.11
2018-06-18T14:58:18.540Z,33.80
2018-06-18T15:00:45.477Z,34.06
2018-06-18T15:03:12.514Z,36.81
2018-06-18T15:05:41.067Z,38.57
2018-06-18T15:08:08.026Z,38.47
2018-06-18T15:10:40.826Z,39.26
2018-06-18T15:13:09.677Z,40.00
2018-06-18T15:15:42.527Z,40.74
2018-06-18T15:18:09.487Z,41.11
2018-06-18T15:20:47.640Z,42.46
2018-06-18T15:23:14.664Z,42.92
2018-06-18T15:25:44.482Z,43.04
2018-06-18T15:28:11.380Z,41.71
2018-06-18T15:30:38.493Z,38.98
2018-06-18T15:33:05.476Z,35.38
2018-06-18T15:35:32.462Z,36.98
2018-06-18T15:38:01.402Z,39.17
2018-06-18T15:40:28.955Z,36.69
2018-06-18T15:42:57.013Z,38.95
2018-06-18T15:45:23.902Z,37.85
2018-06-18T15:47:50.860Z,41.21
2018-06-18T15:50:17.822Z,40.80
2018-06-18T15:52:46.810Z,41.90
2018-06-18T15:55:16.754Z,41.26
2018-06-18T15:57:45.480Z,40.96
2018-06-18T16:00:12.978Z,42.17
2018-06-18T16:02:39.902Z,45.67
2018-06-18T16:05:06.837Z,43.56
2018-06-18T16:07:38.426Z,36.32
2018-06-18T16:10:05.341Z,38.75
2018-06-18T16:12:32.314Z,42.56
2018-06-18T16:15:00.634Z,42.20
2018-06-18T16:17:31.751Z,38.26
2018-06-18T16:20:00.773Z,38.67
2018-06-18T16:22:28.294Z,42.62
2018-06-18T16:24:55.282Z,44.01
2018-06-18T16:27:22.145Z,46.12
2018-06-18T16:29:49.122Z,45.48
2018-06-18T16:32:16.038Z,46.78
2018-06-18T16:34:57.450Z,45.84
2018-06-18T16:37:24.474Z,45.67
2018-06-18T16:39:54.441Z,45.38
2018-06-18T16:42:21.374Z,44.43
2018-06-18T16:44:49.011Z,43.62
2018-06-18T16:47:15.946Z,43.29
2018-06-18T16:49:42.925Z,42.89
2018-06-18T16:52:09.819Z,41.95
2018-06-18T16:54:39.834Z,41.49
2018-06-18T16:57:07.483Z,41.11
2018-06-18T16:59:35.437Z,41.51
2018-06-18T17:02:02.415Z,41.51
2018-06-18T17:04:29.333Z,41.86
2018-06-18T17:06:56.291Z,42.94
2018-06-18T17:09:26.225Z,42.00
2018-06-18T17:11:53.170Z,41.79
2018-06-18T17:14:20.134Z,41.87
2018-06-18T17:16:47.913Z,43.54
2018-06-18T17:19:15.390Z,42.94
2018-06-18T17:21:42.354Z,42.93
2018-06-18T17:24:10.018Z,41.90
2018-06-18T17:26:36.965Z,45.39
2018-06-18T17:29:03.982Z,44.36
2018-06-18T17:31:30.934Z,45.36
2018-06-18T17:33:58.466Z,45.43
2018-06-18T17:36:25.394Z,46.25
2018-06-18T17:38:52.389Z,45.96
2018-06-18T17:41:19.382Z,46.82
2018-06-18T17:43:47.014Z,46.65
2018-06-18T17:46:13.970Z,47.07
2018-06-18T17:48:41.028Z,46.71
2018-06-18T17:51:09.005Z,46.07
2018-06-18T17:53:36.478Z,45.82
2018-06-18T17:56:05.486Z,45.55
2018-06-18T17:58:32.450Z,42.20
2018-06-18T18:00:59.395Z,40.12
2018-06-18T18:03:26.975Z,41.49
2018-06-18T18:05:54.985Z,42.35
2018-06-18T18:08:24.890Z,42.48
2018-06-18T18:10:51.822Z,44.02
2018-06-18T18:13:19.574Z,46.46
2018-06-18T18:15:46.509Z,48.09
2018-06-18T18:18:13.477Z,49.98
2018-06-18T18:20:40.374Z,48.88
2018-06-18T18:23:07.399Z,46.69
2018-06-18T18:25:35.114Z,44.96
2018-06-18T18:28:02.110Z,42.75
2018-06-18T18:30:29.046Z,36.94
2018-06-18T18:32:56.059Z,34.21
2018-06-18T18:35:23.047Z,34.37
2018-06-18T18:37:51.070Z,35.59
2018-06-18T18:40:20.044Z,36.80
2018-06-18T18:42:48.538Z,40.39
2018-06-18T18:45:19.438Z,41.90
2018-06-18T18:47:49.294Z,44.75
2018-06-18T18:50:17.303Z,46.99
2018-06-18T18:52:45.274Z,49.51
2018-06-18T18:55:37.410Z,50.60
2018-06-18T18:58:19.155Z,53.30
2018-06-18T19:00:50.413Z,54.80
2018-06-18T19:03:19.946Z,56.67
2018-06-18T19:05:47.833Z,56.65
2018-06-18T19:08:17.327Z,57.93
2018-06-18T19:10:45.498Z,59.22
2018-06-18T19:13:17.654Z,60.42
2018-06-18T19:15:46.323Z,61.92
2018-06-18T19:18:14.167Z,64.24
2018-06-18T19:20:43.726Z,64.38
2018-06-18T19:23:10.712Z,65.78
2018-06-18T19:25:40.604Z,65.79
2018-06-18T19:28:07.590Z,67.37
2018-06-18T19:30:36.123Z,68.64
2018-06-18T19:33:07.602Z,69.71
2018-06-18T19:35:35.534Z,69.95
2018-06-18T19:38:02.468Z,66.86
2018-06-18T19:40:29.482Z,68.86
2018-06-18T19:42:56.477Z,69.13
2018-06-18T19:45:26.886Z,68.12
2018-06-18T19:48:09.038Z,66.61
2018-06-18T19:50:44.922Z,66.91
2018-06-18T19:53:15.124Z,69.01
2018-06-18T19:55:43.202Z,68.58
2018-06-18T19:58:12.762Z,68.65
2018-06-18T20:00:48.849Z,69.61
2018-06-18T20:03:15.885Z,72.54
2018-06-18T20:05:45.873Z,74.05
2018-06-18T20:08:17.226Z,75.39
2018-06-18T20:10:45.418Z,74.96
2018-06-18T20:13:13.395Z,75.89
2018-06-18T20:15:44.386Z,75.54
2018-06-18T20:18:12.828Z,74.90
2018-06-18T20:20:40.900Z,73.48
2018-06-18T20:23:11.065Z,72.88
2018-06-18T20:25:42.681Z,73.51
2018-06-18T20:28:13.038Z,72.93
2018-06-18T20:30:40.931Z,71.89
2018-06-18T20:33:15.747Z,71.35
2018-06-18T20:35:52.594Z,69.30
2018-06-18T20:38:19.482Z,69.12
2018-06-18T20:40:49.111Z,68.62
2018-06-18T20:43:18.120Z,68.55
2018-06-18T20:45:45.591Z,67.82
2018-06-18T20:48:14.597Z,67.80
2018-06-18T20:50:42.098Z,67.89
2018-06-18T20:53:17.719Z,69.22
2018-06-18T20:55:45.602Z,68.61
2018-06-18T20:58:13.221Z,67.86
2018-06-18T21:00:40.088Z,68.52
2018-06-18T21:03:06.986Z,67.59
2018-06-18T21:05:35.590Z,67.32
2018-06-18T21:08:02.542Z,68.06
2018-06-18T21:10:34.498Z,68.78
2018-06-18T21:13:08.258Z,69.73
2018-06-18T21:15:35.179Z,69.68
2018-06-18T21:18:02.125Z,69.81
2018-06-18T21:20:29.178Z,69.85
2018-06-18T21:23:00.086Z,70.48
2018-06-18T21:25:28.033Z,70.07
2018-06-18T21:27:55.010Z,67.47
2018-06-18T21:30:22.638Z,68.53
2018-06-18T21:32:52.657Z,67.70
2018-06-18T21:35:20.426Z,67.02
2018-06-18T21:37:49.138Z,67.00
2018-06-18T21:40:18.686Z,68.16
2018-06-18T21:42:50.077Z,68.86
2018-06-18T21:48:04.430Z,69.66
2018-06-18T21:50:31.401Z,69.16
2018-06-18T21:52:58.271Z,68.89
2018-06-18T21:55:25.235Z,69.15
2018-06-18T21:57:53.156Z,68.41
2018-06-18T22:00:27.496Z,68.19
2018-06-18T22:02:55.218Z,68.00
2018-06-18T22:05:22.167Z,69.12
2018-06-18T22:07:49.162Z,69.42
2018-06-18T22:10:16.083Z,69.90
2018-06-18T22:12:45.991Z,70.36
2018-06-18T22:15:15.918Z,69.61
2018-06-18T22:17:47.590Z,70.03
2018-06-18T22:20:14.537Z,69.20
2018-06-18T22:22:41.546Z,69.75
2018-06-18T22:25:14.539Z,69.25
2018-06-18T22:27:45.162Z,69.80
2018-06-18T22:30:15.698Z,70.87
2018-06-18T22:32:46.287Z,70.78
2018-06-18T22:35:14.118Z,71.18
2018-06-18T22:37:42.558Z,72.14
2018-06-18T22:40:10.174Z,72.72
2018-06-18T22:42:42.962Z,73.14
2018-06-18T22:45:13.410Z,73.42
2018-06-18T22:47:40.385Z,73.09
2018-06-18T22:50:11.222Z,73.84
2018-06-18T22:52:45.555Z,73.99
2018-06-18T22:55:15.454Z,73.63
2018-06-18T22:57:42.303Z,74.90
2018-06-18T23:00:09.310Z,74.26
2018-06-18T23:02:37.194Z,74.33
2018-06-18T23:05:06.682Z,74.87
2018-06-18T23:07:42.656Z,75.01
2018-06-18T23:10:14.418Z,75.31
2018-06-18T23:12:43.950Z,76.20
2018-06-18T23:15:14.223Z,76.78
2018-06-18T23:17:49.643Z,76.04
2018-06-18T23:20:19.530Z,76.96
2018-06-18T23:22:50.382Z,76.73
2018-06-18T23:25:20.217Z,77.27
2018-06-18T23:27:50.561Z,76.33
2018-06-18T23:30:17.421Z,76.70
2018-06-18T23:32:46.245Z,76.94
2018-06-18T23:35:19.337Z,76.97
2018-06-18T23:37:49.267Z,76.78
2018-06-18T23:40:16.226Z,78.02
2018-06-18T23:42:43.690Z,77.89
2018-06-18T23:45:14.234Z,77.53
2018-06-18T23:47:42.198Z,77.84
2018-06-18T23:50:11.218Z,78.26
2018-06-18T23:52:39.765Z,77.40
2018-06-18T23:55:11.412Z,78.01
2018-06-18T23:57:40.232Z,78.58
